Time;durP1;ratioP1;P1;durP2;ratioP2;P2;SDS_P1;SDS_P2;PMS_P1;PMS_P2;Temp;Humidity;BMP_temperature;BMP_pressure;BME280_temperature;BME280_humidity;BME280_pressure;Samples;Min_cycle;Max_cycle;Signal;HPM_P1;HPM_P2
2023/01/31 00:01:39;;;;;;;0.20;0.20;;;4.10;99.90;;;3.89;99.96;101002.69;4853805;29;20702;-76
2023/01/31 00:04:11;;;;;;;0.20;0.20;;;4.00;99.90;;;3.83;100.00;101003.31;4851312;29;20327;-77
2023/01/31 00:06:42;;;;;;;0.20;0.20;;;4.00;99.90;;;3.88;99.87;101011.38;4858477;29;20233;-75
2023/01/31 00:09:12;;;;;;;0.28;0.28;;;4.00;99.90;;;3.83;99.85;101000.69;4860900;29;20236;-75
2023/01/31 00:11:39;;;;;;;0.15;0.15;;;3.90;99.90;;;3.79;100.00;101006.63;4856807;29;20237;-77
2023/01/31 00:14:09;;;;;;;0.20;0.20;;;3.90;99.90;;;3.87;99.53;101009.59;4854413;29;20268;-75
2023/01/31 00:16:36;;;;;;;0.10;0.10;;;4.10;99.90;;;3.84;99.01;101010.34;4852045;29;20289;-75
2023/01/31 00:19:04;;;;;;;0.20;0.20;;;4.00;99.90;;;3.79;99.18;101011.84;4853470;29;20245;-77
2023/01/31 00:21:32;;;;;;;0.20;0.20;;;3.90;99.90;;;3.80;99.12;101016.25;4850745;29;20258;-74
2023/01/31 00:24:00;;;;;;;0.20;0.20;;;3.90;99.90;;;3.76;98.77;101021.28;4854912;29;20245;-73
2023/01/31 00:26:34;;;;;;;0.20;0.20;;;4.10;99.90;;;3.83;98.26;101023.34;4851924;29;20265;-74
2023/01/31 00:29:04;;;;;;;0.20;0.20;;;3.90;99.90;;;3.80;98.12;101012.75;4835357;29;20227;-74
2023/01/31 00:31:33;;;;;;;0.20;0.20;;;3.90;99.90;;;3.75;98.30;101015.16;4853838;29;20260;-73
2023/01/31 00:34:01;;;;;;;0.55;0.55;;;3.90;99.90;;;3.71;98.53;101009.72;4849830;29;20239;-74
2023/01/31 00:36:33;;;;;;;0.10;0.10;;;3.70;99.90;;;3.63;99.05;101017.22;4850984;29;20237;-74
2023/01/31 00:39:03;;;;;;;0.20;0.20;;;3.80;99.90;;;3.59;99.30;101011.78;4850687;29;20285;-74
2023/01/31 00:41:31;;;;;;;0.20;0.20;;;3.70;99.90;;;3.54;99.56;101019.41;4856473;29;20285;-74
2023/01/31 00:43:59;;;;;;;0.65;0.65;;;3.70;99.90;;;3.51;100.00;101029.72;4830768;29;20265;-74
2023/01/31 00:46:27;;;;;;;0.20;0.20;;;3.60;99.90;;;3.47;100.00;101027.78;4851250;29;20316;-74
2023/01/31 00:48:55;;;;;;;0.20;0.20;;;3.70;99.90;;;3.45;100.00;101032.94;4853754;29;20257;-74
2023/01/31 00:51:25;;;;;;;0.20;0.20;;;3.60;99.90;;;3.40;100.00;101029.22;4856846;29;20289;-74
2023/01/31 00:53:52;;;;;;;0.20;0.20;;;3.50;99.90;;;3.40;100.00;101024.00;4856558;29;20247;-74
2023/01/31 00:56:23;;;;;;;0.20;0.20;;;3.70;99.90;;;3.37;100.00;101021.22;4850505;29;20234;-74
2023/01/31 00:58:51;;;;;;;0.20;0.20;;;3.50;99.90;;;3.33;100.00;101023.63;4852610;29;20272;-74
2023/01/31 01:01:26;;;;;;;0.20;0.20;;;3.50;99.90;;;3.33;100.00;101026.25;4854666;29;20245;-73
2023/01/31 01:03:55;;;;;;;0.20;0.20;;;3.60;99.90;;;3.28;100.00;101032.97;4858360;29;20291;-74
2023/01/31 01:06:23;;;;;;;0.20;0.20;;;3.60;99.90;;;3.32;100.00;101034.91;4851728;29;20297;-74
2023/01/31 01:08:50;;;;;;;0.40;0.40;;;3.50;99.90;;;3.26;100.00;101035.50;4853925;29;20264;-74
2023/01/31 01:11:28;;;;;;;0.50;0.50;;;3.40;99.90;;;3.22;100.00;101025.72;4850976;29;20229;-72
2023/01/31 01:13:58;;;;;;;0.20;0.20;;;3.40;99.90;;;3.14;100.00;101022.75;4851934;29;20247;-74
2023/01/31 01:16:34;;;;;;;0.30;0.30;;;3.30;99.90;;;3.08;100.00;101019.84;4853516;29;20248;-74
2023/01/31 01:19:09;;;;;;;0.30;0.30;;;3.30;99.90;;;3.05;100.00;101019.69;4833861;29;20246;-74
2023/01/31 01:21:39;;;;;;;0.20;0.20;;;3.40;99.90;;;2.95;100.00;101020.06;4848416;29;20305;-73
2023/01/31 01:24:18;;;;;;;0.20;0.20;;;3.10;99.90;;;2.88;100.00;101016.28;4843720;29;20274;-74
2023/01/31 01:26:45;;;;;;;0.20;0.20;;;3.10;99.90;;;2.83;100.00;101019.47;4850999;29;20256;-73
2023/01/31 01:29:13;;;;;;;0.20;0.20;;;3.00;99.90;;;2.84;100.00;101011.72;4851962;29;20690;-73
2023/01/31 01:31:40;;;;;;;0.20;0.20;;;3.00;99.90;;;2.75;100.00;101013.88;4849890;29;20272;-74
2023/01/31 01:34:13;;;;;;;0.20;0.20;;;2.80;99.90;;;2.69;100.00;101005.75;4847700;29;20289;-72
2023/01/31 01:36:41;;;;;;;0.20;0.20;;;2.80;99.90;;;2.63;100.00;101002.81;4866015;29;20289;-73
2023/01/31 01:39:10;;;;;;;0.20;0.20;;;2.90;99.90;;;2.64;100.00;101001.09;4849858;29;20237;-74
2023/01/31 01:41:39;;;;;;;0.20;0.20;;;2.90;99.90;;;2.74;100.00;101013.78;4847248;29;20245;-73
2023/01/31 01:44:44;;;;;;;0.30;0.30;;;2.90;99.90;;;2.53;100.00;101009.25;4847899;29;20240;-74
2023/01/31 01:47:41;;;;;;;0.20;0.20;;;2.70;99.90;;;2.52;100.00;101009.19;4855527;29;20233;-72
2023/01/31 01:50:28;;;;;;;0.20;0.20;;;2.70;99.90;;;2.45;100.00;101002.75;4851785;29;20304;-74
2023/01/31 01:53:19;;;;;;;0.10;0.10;;;2.60;99.90;;;2.56;100.00;101016.34;4847789;29;20250;-74
2023/01/31 01:56:10;;;;;;;0.20;0.20;;;2.60;99.90;;;2.51;100.00;101016.13;4847552;29;20293;-73
2023/01/31 01:59:07;;;;;;;0.20;0.20;;;2.70;99.90;;;2.53;100.00;101008.38;4846500;29;20312;-73
2023/01/31 02:01:37;;;;;;;0.20;0.20;;;2.80;99.90;;;2.95;100.00;101030.53;4851880;29;20235;-74
2023/01/31 02:04:12;;;;;;;0.20;0.20;;;2.90;99.90;;;2.92;100.00;101019.94;4852741;29;20237;-74
2023/01/31 02:06:40;;;;;;;0.20;0.20;;;3.00;99.90;;;3.17;100.00;101029.84;4853151;29;20261;-74
2023/01/31 02:09:17;;;;;;;0.20;0.20;;;3.20;99.90;;;3.24;99.82;101021.47;4848637;29;20328;-74
2023/01/31 02:11:45;;;;;;;0.65;0.65;;;3.30;99.90;;;3.23;99.53;101019.69;4869383;29;20316;-74
2023/01/31 02:14:12;;;;;;;0.30;0.30;;;3.30;99.90;;;3.28;98.71;101017.28;4857847;29;20236;-74
2023/01/31 02:16:39;;;;;;;0.20;0.20;;;3.50;99.90;;;3.18;98.48;101000.28;4854416;29;20376;-73
2023/01/31 02:19:26;;;;;;;0.20;0.20;;;3.20;99.90;;;3.24;97.92;100997.94;4849980;29;20328;-74
2023/01/31 02:22:05;;;;;;;0.20;0.20;;;3.40;99.90;;;3.28;97.19;101001.59;4844415;29;20264;-73
2023/01/31 02:25:10;;;;;;;0.20;0.20;;;3.40;99.90;;;3.18;97.09;100984.59;4855093;29;20316;-73
2023/01/31 02:27:46;;;;;;;0.20;0.20;;;3.40;99.90;;;3.31;96.56;100992.19;4852103;29;20229;-74
2023/01/31 02:31:00;;;;;;;0.20;0.20;;;3.40;99.90;;;3.27;96.63;100989.34;4858824;29;20260;-74
2023/01/31 02:34:25;;;;;;;0.20;0.20;;;3.40;99.90;;;3.20;96.63;100996.91;4834331;29;20262;-73
2023/01/31 02:37:22;;;;;;;0.20;0.20;;;3.30;99.90;;;3.12;97.10;100990.44;4806932;29;20233;-74
2023/01/31 02:40:16;;;;;;;0.20;0.20;;;3.30;99.90;;;3.12;97.52;100994.75;4850823;29;20241;-74
2023/01/31 02:44:58;;;;;;;0.20;0.20;;;3.40;99.90;;;3.02;97.83;100998.66;4845283;29;20331;-74
2023/01/31 02:47:09;;;;;;;0.20;0.20;;;3.20;99.90;;;2.92;98.44;100993.81;4848910;29;20261;-72
2023/01/31 02:49:49;;;;;;;0.20;0.20;;;3.10;99.90;;;2.90;98.70;101000.66;4846264;29;20344;-74
2023/01/31 02:52:50;;;;;;;0.50;0.50;;;3.10;99.90;;;2.88;99.18;101002.31;4845288;29;20337;-74
2023/01/31 02:58:35;;;;;;;0.20;0.20;;;3.00;99.90;;;2.72;99.88;100997.16;4846593;29;20584;-73
2023/01/31 03:01:04;;;;;;;0.20;0.20;;;2.90;99.90;;;2.74;100.00;101000.75;4848283;29;20247;-73
2023/01/31 03:03:36;;;;;;;0.20;0.20;;;2.90;99.90;;;2.58;100.00;100994.72;4861293;29;20576;-74
2023/01/31 03:06:22;;;;;;;0.20;0.20;;;2.80;99.90;;;2.48;100.00;101000.31;4854235;29;20305;-74
2023/01/31 03:09:05;;;;;;;0.20;0.20;;;2.70;99.90;;;2.44;100.00;101005.31;4853258;29;20292;-74
2023/01/31 03:12:11;;;;;;;0.20;0.20;;;2.60;99.90;;;2.36;100.00;101009.22;4868657;29;20252;-74
2023/01/31 03:14:46;;;;;;;0.25;0.25;;;2.50;99.90;;;2.29;100.00;101002.81;4850590;29;20690;-73
2023/01/31 03:18:04;;;;;;;0.20;0.20;;;2.50;99.90;;;2.26;100.00;101013.09;4849071;29;20236;-74
2023/01/31 03:20:46;;;;;;;0.20;0.20;;;2.40;99.90;;;2.19;100.00;101010.97;4868740;29;20293;-72
2023/01/31 03:23:18;;;;;;;0.20;0.20;;;2.40;99.90;;;2.03;100.00;100997.97;4864378;29;20268;-74
2023/01/31 03:25:47;;;;;;;0.20;0.20;;;2.30;99.90;;;2.00;100.00;101000.41;4841575;29;20237;-74
2023/01/31 03:28:20;;;;;;;0.10;0.10;;;2.20;99.90;;;2.00;100.00;101013.47;4859133;29;20272;-74
2023/01/31 03:31:01;;;;;;;0.20;0.20;;;2.40;99.90;;;1.93;100.00;101007.91;4862973;29;20301;-75
2023/01/31 03:33:35;;;;;;;0.20;0.20;;;2.40;99.90;;;1.89;100.00;101005.97;4854879;29;20561;-74
2023/01/31 03:36:37;;;;;;;0.20;0.20;;;2.20;99.90;;;1.84;100.00;101015.25;4870353;29;20566;-74
2023/01/31 03:39:22;;;;;;;0.10;0.10;;;2.00;99.90;;;1.81;100.00;101014.19;4855927;29;20232;-74
2023/01/31 03:42:12;;;;;;;0.20;0.20;;;2.10;99.90;;;1.72;100.00;101022.44;4851929;29;20284;-74
2023/01/31 03:44:49;;;;;;;0.20;0.20;;;1.90;99.90;;;1.75;100.00;101033.03;4848989;29;20233;-74
2023/01/31 03:47:41;;;;;;;0.20;0.20;;;1.90;99.90;;;1.64;100.00;101015.91;4853442;29;20289;-74
2023/01/31 03:50:38;;;;;;;0.20;0.20;;;1.80;99.90;;;1.48;100.00;101016.78;4853891;29;20461;-74
2023/01/31 03:53:38;;;;;;;0.30;0.30;;;1.70;99.90;;;1.28;100.00;101009.56;4849080;29;20301;-75
2023/01/31 03:56:25;;;;;;;0.30;0.30;;;1.50;99.90;;;1.19;100.00;101022.97;4853700;29;20290;-74
2023/01/31 03:59:03;;;;;;;0.30;0.30;;;1.40;99.90;;;1.05;100.00;101013.50;4872348;29;20243;-74
2023/01/31 04:01:34;;;;;;;0.20;0.20;;;1.30;99.90;;;1.02;100.00;101015.03;4849983;29;20264;-73
2023/01/31 04:04:11;;;;;;;0.10;0.10;;;1.60;99.90;;;1.04;100.00;101032.53;4848768;29;20237;-73
2023/01/31 04:06:39;;;;;;;0.20;0.20;;;1.20;99.90;;;1.05;100.00;101043.84;4853085;29;20301;-73
2023/01/31 04:09:06;;;;;;;0.20;0.20;;;1.20;99.90;;;1.21;100.00;101050.00;4852904;29;20257;-73
2023/01/31 04:11:38;;;;;;;0.10;0.10;;;2.20;99.90;;;1.33;100.00;101054.13;4856823;29;20245;-73
2023/01/31 04:14:06;;;;;;;0.55;0.55;;;1.60;99.90;;;1.37;100.00;101050.88;4855501;29;20261;-74
2023/01/31 04:16:33;;;;;;;0.20;0.20;;;1.50;99.90;;;1.39;100.00;101039.75;4854721;29;20268;-73
2023/01/31 04:19:00;;;;;;;0.52;0.52;;;1.60;99.90;;;1.59;100.00;101046.03;4870703;29;20257;-74
2023/01/31 04:21:27;;;;;;;0.20;0.20;;;2.40;99.90;;;1.76;100.00;101055.69;4855308;29;20670;-72
2023/01/31 04:23:54;;;;;;;0.20;0.20;;;2.00;99.90;;;1.66;100.00;101048.16;4852711;29;20323;-73
2023/01/31 04:26:22;;;;;;;0.20;0.20;;;1.80;99.90;;;1.51;100.00;101036.91;4862248;29;20303;-73
2023/01/31 04:28:50;;;;;;;0.57;0.57;;;1.70;99.90;;;1.48;100.00;101035.03;4851675;29;20247;-73
2023/01/31 04:31:17;;;;;;;0.28;0.28;;;1.70;99.90;;;1.39;100.00;101037.13;4859751;29;20265;-73
2023/01/31 04:33:44;;;;;;;0.20;0.20;;;1.70;99.90;;;1.29;100.00;101024.38;4857368;29;20245;-73
2023/01/31 04:36:11;;;;;;;0.20;0.20;;;1.50;99.90;;;1.41;100.00;101030.31;4859550;29;20261;-73
2023/01/31 04:38:38;;;;;;;0.20;0.20;;;1.60;99.90;;;1.28;100.00;101018.28;4857580;29;20313;-73
2023/01/31 04:41:05;;;;;;;0.20;0.20;;;1.80;99.90;;;1.32;100.00;101021.97;4858193;29;20309;-73
2023/01/31 04:43:32;;;;;;;0.20;0.20;;;1.40;99.90;;;1.12;100.00;101012.13;4856846;29;20336;-74
2023/01/31 04:45:59;;;;;;;0.20;0.20;;;1.50;99.90;;;1.11;100.00;101015.53;4859751;29;20293;-74
2023/01/31 04:48:26;;;;;;;0.13;0.13;;;1.30;99.90;;;1.12;100.00;101022.53;4856601;29;20715;-73
2023/01/31 04:50:55;;;;;;;0.20;0.20;;;1.30;99.90;;;1.07;100.00;101014.47;4857308;29;20261;-73
2023/01/31 04:53:22;;;;;;;0.20;0.20;;;1.40;99.90;;;1.09;100.00;101014.56;4848092;29;20273;-73
2023/01/31 04:55:53;;;;;;;0.20;0.20;;;1.50;99.90;;;1.03;100.00;101002.09;4856076;29;20237;-74
2023/01/31 04:58:21;;;;;;;0.40;0.40;;;1.40;99.90;;;1.05;100.00;101004.78;4858300;29;20274;-73
2023/01/31 05:00:48;;;;;;;0.20;0.20;;;1.30;99.90;;;0.91;100.00;100999.69;4852963;29;20317;-73
2023/01/31 05:03:15;;;;;;;0.10;0.10;;;1.10;99.90;;;0.99;100.00;101014.84;4853279;29;20257;-74
2023/01/31 05:05:42;;;;;;;0.20;0.20;;;1.70;99.90;;;0.93;100.00;101010.19;4849568;29;20256;-73
2023/01/31 05:08:09;;;;;;;0.20;0.20;;;1.50;99.90;;;0.93;100.00;101018.91;4863478;29;20305;-72
2023/01/31 05:10:36;;;;;;;0.30;0.30;;;1.10;99.90;;;0.93;100.00;101013.69;4871466;29;20265;-74
2023/01/31 05:13:03;;;;;;;0.57;0.57;;;1.10;99.90;;;0.87;100.00;101018.56;4876128;29;20268;-74
2023/01/31 05:15:31;;;;;;;0.20;0.20;;;1.20;99.90;;;0.79;100.00;101011.13;4865466;29;20245;-75
2023/01/31 05:18:01;;;;;;;0.20;0.20;;;1.00;99.90;;;0.75;100.00;101007.44;4854310;29;20261;-75
2023/01/31 05:20:32;;;;;;;0.28;0.28;;;2.00;99.90;;;0.63;100.00;101005.03;4855690;29;20237;-75
2023/01/31 05:23:00;;;;;;;0.20;0.20;;;1.00;99.90;;;0.62;100.00;101010.16;4853049;29;20241;-75
2023/01/31 05:25:27;;;;;;;0.30;0.30;;;0.80;99.90;;;0.40;100.00;100991.50;4875536;29;20229;-75
2023/01/31 05:27:54;;;;;;;0.20;0.20;;;0.70;99.90;;;0.18;100.00;100992.84;4858958;29;20232;-75
2023/01/31 05:30:25;;;;;;;0.20;0.20;;;0.60;99.90;;;0.03;100.00;101004.94;4850829;29;20230;-76
2023/01/31 05:32:52;;;;;;;0.22;0.22;;;0.30;99.90;;;0.06;100.00;101005.13;4831391;29;20250;-75
2023/01/31 05:35:20;;;;;;;0.20;0.20;;;0.30;99.90;;;0.02;100.00;101023.94;4863516;29;20523;-76
2023/01/31 05:37:48;;;;;;;0.20;0.20;;;0.20;99.90;;;-0.01;100.00;101014.22;4849627;29;20264;-75
2023/01/31 05:40:16;;;;;;;0.20;0.20;;;0.20;99.90;;;-0.07;100.00;101012.97;4851380;29;20245;-76
2023/01/31 05:42:44;;;;;;;0.20;0.20;;;0.20;99.90;;;-0.03;100.00;101028.84;4856359;29;20237;-76
2023/01/31 05:45:12;;;;;;;0.30;0.30;;;0.30;99.90;;;0.04;100.00;101034.44;4868328;29;20248;-77
2023/01/31 05:47:39;;;;;;;0.20;0.20;;;0.20;99.90;;;0.05;100.00;101049.25;4852732;29;20333;-75
2023/01/31 05:50:07;;;;;;;0.30;0.30;;;0.30;99.90;;;0.01;100.00;101044.66;4851943;29;20314;-77
2023/01/31 05:52:34;;;;;;;0.20;0.20;;;0.20;99.90;;;0.07;100.00;101058.94;4852436;29;20241;-76
2023/01/31 05:55:01;;;;;;;0.20;0.20;;;0.60;99.90;;;0.17;100.00;101061.28;4854812;29;20685;-78
2023/01/31 05:57:28;;;;;;;0.20;0.20;;;0.40;99.90;;;0.19;100.00;101063.97;4847449;29;20233;-76
2023/01/31 05:59:56;;;;;;;0.20;0.20;;;0.40;99.90;;;0.19;100.00;101057.06;4849693;29;20237;-77
2023/01/31 06:02:23;;;;;;;0.20;0.20;;;0.40;99.90;;;0.13;100.00;101061.91;4852423;29;20237;-76
2023/01/31 06:04:50;;;;;;;0.20;0.20;;;0.60;99.90;;;0.20;100.00;101064.06;4847248;29;20241;-76
2023/01/31 06:07:17;;;;;;;0.20;0.20;;;0.30;99.90;;;0.28;100.00;101070.63;4856933;29;20328;-76
2023/01/31 06:09:44;;;;;;;0.20;0.20;;;0.40;99.90;;;0.31;100.00;101073.41;4854140;29;20244;-76
2023/01/31 06:12:14;;;;;;;0.20;0.20;;;0.50;99.90;;;0.29;100.00;101080.22;4854619;29;20336;-76
2023/01/31 06:14:41;;;;;;;0.20;0.20;;;1.00;99.90;;;0.23;100.00;101077.25;4856360;29;20245;-77
2023/01/31 06:17:08;;;;;;;0.20;0.20;;;1.40;99.90;;;0.15;100.00;101081.09;4856884;29;20328;-77
2023/01/31 06:19:35;;;;;;;0.20;0.20;;;0.80;99.90;;;0.08;100.00;101083.22;4847670;29;20256;-78
2023/01/31 06:22:03;;;;;;;0.20;0.20;;;1.30;99.90;;;-0.04;100.00;101073.84;4853110;29;20294;-76
2023/01/31 06:24:30;;;;;;;0.20;0.20;;;0.30;99.90;;;-0.03;100.00;101086.03;4851212;29;20364;-77
2023/01/31 06:26:57;;;;;;;0.10;0.10;;;0.20;99.90;;;-0.13;100.00;101082.78;4857625;29;20233;-76
2023/01/31 06:29:25;;;;;;;0.10;0.10;;;0.90;99.90;;;-0.05;100.00;101078.94;4854324;29;20232;-77
2023/01/31 06:31:52;;;;;;;0.20;0.20;;;0.20;99.90;;;-0.01;100.00;101079.22;4855769;29;20297;-76
2023/01/31 06:34:19;;;;;;;0.20;0.20;;;0.30;99.90;;;0.02;100.00;101072.47;4852316;29;20334;-76
2023/01/31 06:36:46;;;;;;;0.20;0.20;;;0.90;99.90;;;0.03;100.00;101075.16;4855645;29;20256;-76
2023/01/31 06:39:14;;;;;;;0.20;0.20;;;0.30;99.90;;;0.03;100.00;101075.16;4869970;29;20237;-76
2023/01/31 06:41:40;;;;;;;0.20;0.20;;;0.80;99.90;;;0.03;100.00;101072.53;4871604;29;20316;-76
2023/01/31 06:44:08;;;;;;;0.20;0.20;;;0.90;99.90;;;0.08;100.00;101071.13;4858126;29;20237;-76
2023/01/31 06:46:35;;;;;;;0.20;0.20;;;0.90;99.90;;;0.14;100.00;101081.00;4851945;29;20310;-75
2023/01/31 06:49:02;;;;;;;0.20;0.20;;;0.40;99.90;;;0.13;100.00;101072.31;4844488;29;20233;-75
2023/01/31 06:51:30;;;;;;;0.30;0.30;;;0.40;99.90;;;0.06;100.00;101079.63;4862111;29;20367;-76
2023/01/31 06:53:57;;;;;;;0.20;0.20;;;0.50;99.90;;;0.09;100.00;101082.44;4827872;29;20252;-77
2023/01/31 06:56:24;;;;;;;0.30;0.30;;;0.40;99.90;;;-0.05;100.00;101087.66;4857337;29;20253;-75
2023/01/31 06:58:51;;;;;;;0.20;0.20;;;1.20;99.90;;;-0.03;100.00;101091.25;4859353;29;20774;-76
2023/01/31 07:01:18;;;;;;;0.22;0.22;;;0.90;99.90;;;0.07;100.00;101103.13;4859928;29;20237;-76
2023/01/31 07:03:45;;;;;;;0.20;0.20;;;0.80;99.90;;;0.09;100.00;101108.44;4859293;29;20249;-76
2023/01/31 07:06:12;;;;;;;0.20;0.20;;;0.30;99.90;;;0.26;100.00;101107.75;4860889;29;20260;-77
2023/01/31 07:08:40;;;;;;;0.10;0.10;;;0.90;99.90;;;0.01;100.00;101100.16;4859140;29;20659;-76
2023/01/31 07:11:07;;;;;;;0.10;0.10;;;0.30;99.90;;;-0.13;100.00;101093.19;4859339;29;20297;-76
2023/01/31 07:13:34;;;;;;;0.10;0.10;;;0.20;99.90;;;-0.20;100.00;101088.41;4858682;29;20309;-75
2023/01/31 07:16:01;;;;;;;0.20;0.20;;;0.00;99.90;;;-0.16;100.00;101091.28;4861643;29;20236;-76
2023/01/31 07:18:28;;;;;;;0.20;0.20;;;0.00;99.90;;;-0.15;100.00;101105.19;4858653;29;20237;-76
2023/01/31 07:20:55;;;;;;;0.20;0.20;;;0.10;99.90;;;-0.12;100.00;101106.28;4853633;29;20235;-76
2023/01/31 07:23:22;;;;;;;0.20;0.20;;;0.90;99.90;;;0.03;100.00;101119.34;4855426;29;20237;-76
2023/01/31 07:25:49;;;;;;;0.20;0.20;;;0.90;99.90;;;0.22;100.00;101116.19;4846953;29;20627;-76
2023/01/31 07:28:16;;;;;;;0.13;0.13;;;0.50;99.90;;;0.46;100.00;101150.59;4859299;29;20240;-76
2023/01/31 07:30:45;;;;;;;0.20;0.20;;;1.00;99.90;;;0.45;100.00;101144.50;4860344;29;20285;-76
2023/01/31 07:33:12;;;;;;;0.20;0.20;;;0.60;99.90;;;0.48;100.00;101154.19;4858191;29;20237;-76
2023/01/31 07:35:42;;;;;;;0.20;0.20;;;0.80;99.90;;;0.48;100.00;101147.28;4860214;29;20666;-75
2023/01/31 07:38:09;;;;;;;0.10;0.10;;;1.20;99.90;;;0.47;100.00;101145.47;4860252;29;20249;-75
2023/01/31 07:40:38;;;;;;;0.20;0.20;;;0.60;99.90;;;0.48;100.00;101147.28;4858816;29;20388;-76
2023/01/31 07:43:06;;;;;;;0.20;0.20;;;0.60;99.90;;;0.52;100.00;101159.66;4859001;29;20249;-76
2023/01/31 07:45:33;;;;;;;0.20;0.20;;;1.40;99.90;;;0.64;100.00;101164.72;4858512;29;20309;-76
2023/01/31 07:48:00;;;;;;;0.20;0.20;;;0.80;99.90;;;0.79;100.00;101173.44;4873856;29;20264;-76
2023/01/31 07:50:27;;;;;;;0.10;0.10;;;0.90;99.90;;;0.85;100.00;101170.31;4860280;29;20245;-76
2023/01/31 07:52:57;;;;;;;0.10;0.10;;;1.00;99.90;;;0.91;100.00;101173.28;4851633;29;20233;-73
2023/01/31 07:55:25;;;;;;;0.20;0.20;;;1.10;99.90;;;1.00;100.00;101173.81;4844140;29;20245;-76
2023/01/31 07:57:52;;;;;;;0.13;0.13;;;1.60;99.90;;;1.02;100.00;101173.91;4853388;29;20241;-75
2023/01/31 08:03:32;;;;;;;0.32;0.32;;;1.30;99.90;;;1.26;100.00;101194.47;4856717;29;20298;-76
2023/01/31 08:06:11;;;;;;;0.20;0.20;;;1.40;99.90;;;1.36;100.00;101195.03;4860209;29;20233;-76
2023/01/31 08:08:41;;;;;;;0.10;0.10;;;1.50;99.90;;;1.40;100.00;101203.13;4872808;29;20236;-76
2023/01/31 08:11:08;;;;;;;0.10;0.10;;;1.70;99.90;;;1.44;100.00;101197.28;4859393;29;20292;-75
2023/01/31 08:13:37;;;;;;;0.20;0.20;;;1.60;99.90;;;1.54;100.00;101206.50;4857724;29;20749;-75
2023/01/31 08:16:08;;;;;;;0.10;0.10;;;1.80;99.90;;;1.60;100.00;101207.75;4859688;29;20233;-76
2023/01/31 08:18:37;;;;;;;0.10;0.10;;;1.70;99.90;;;1.77;100.00;101206.09;4849922;29;20268;-76
2023/01/31 08:21:05;;;;;;;0.38;0.38;;;1.90;99.90;;;2.07;100.00;101224.28;4859005;29;20598;-77
2023/01/31 08:23:32;;;;;;;0.20;0.20;;;2.10;99.90;;;2.23;100.00;101233.03;4851229;29;20318;-75
2023/01/31 08:26:17;;;;;;;0.10;0.10;;;2.40;99.90;;;2.48;100.00;101239.59;4851683;29;20285;-76
2023/01/31 08:28:47;;;;;;;0.20;0.20;;;2.10;99.90;;;2.63;100.00;101245.69;4854615;29;20263;-75
2023/01/31 08:31:19;;;;;;;0.10;0.10;;;2.70;99.90;;;2.74;100.00;101243.63;4854900;29;20248;-75
2023/01/31 08:33:46;;;;;;;0.20;0.20;;;2.80;99.90;;;2.74;100.00;101247.16;4852750;29;20242;-76
2023/01/31 08:36:18;;;;;;;0.20;0.20;;;3.20;99.90;;;2.73;100.00;101236.63;4854247;29;20261;-76
2023/01/31 08:38:46;;;;;;;0.40;0.40;;;3.00;99.90;;;2.79;100.00;101242.16;4851081;29;20282;-76
2023/01/31 08:41:16;;;;;;;0.20;0.20;;;2.90;99.90;;;2.77;100.00;101246.41;4858252;29;20233;-75
2023/01/31 08:43:45;;;;;;;0.20;0.20;;;2.90;99.90;;;2.81;100.00;101259.72;4855926;29;20253;-75
2023/01/31 08:46:26;;;;;;;0.10;0.10;;;3.00;99.90;;;2.87;100.00;101270.50;4857492;29;20289;-76
2023/01/31 08:48:53;;;;;;;0.20;0.20;;;3.00;99.90;;;2.86;100.00;101266.06;4852635;29;20239;-76
2023/01/31 08:51:21;;;;;;;0.10;0.10;;;3.00;99.90;;;2.88;100.00;101269.66;4849455;29;20709;-76
2023/01/31 08:53:49;;;;;;;0.10;0.10;;;3.10;99.90;;;2.90;100.00;101261.91;4864912;29;20335;-76
2023/01/31 08:56:16;;;;;;;0.20;0.20;;;3.20;99.90;;;2.94;100.00;101260.38;4854268;29;20244;-76
2023/01/31 08:58:44;;;;;;;0.20;0.20;;;3.10;99.90;;;2.99;100.00;101249.34;4856471;29;20237;-76
2023/01/31 09:01:14;;;;;;;0.20;0.20;;;3.10;99.90;;;3.05;100.00;101253.97;4856746;29;20617;-76
2023/01/31 09:03:42;;;;;;;0.10;0.10;;;3.20;99.90;;;3.08;100.00;101257.66;4855315;29;20300;-76
2023/01/31 09:06:20;;;;;;;0.10;0.10;;;3.20;99.90;;;3.03;100.00;101256.50;4857675;29;20289;-76
2023/01/31 09:08:47;;;;;;;0.10;0.10;;;3.30;99.90;;;3.00;100.00;101255.47;4849710;29;20260;-76
2023/01/31 09:11:17;;;;;;;0.10;0.10;;;3.20;99.90;;;3.03;100.00;101266.06;4859168;29;20293;-76
2023/01/31 09:13:49;;;;;;;0.20;0.20;;;3.30;99.90;;;3.09;100.00;101266.38;4851522;29;20271;-75
2023/01/31 09:16:19;;;;;;;0.10;0.10;;;3.20;99.90;;;3.15;100.00;101269.31;4857384;29;20237;-75
2023/01/31 09:18:46;;;;;;;0.10;0.10;;;3.30;99.90;;;3.24;100.00;101255.81;4851708;29;20327;-76
2023/01/31 09:21:19;;;;;;;0.20;0.20;;;3.30;99.90;;;3.32;100.00;101259.72;4855117;29;20682;-77
2023/01/31 09:23:48;;;;;;;0.10;0.10;;;3.40;99.90;;;3.35;100.00;101266.00;4847348;29;20297;-76
2023/01/31 09:26:15;;;;;;;0.10;0.10;;;3.50;99.90;;;3.49;100.00;101272.84;4854287;29;20241;-76
2023/01/31 09:28:44;;;;;;;0.20;0.20;;;3.60;99.90;;;3.53;100.00;101277.41;4871242;29;20245;-75
2023/01/31 09:31:15;;;;;;;0.20;0.20;;;3.80;99.90;;;3.60;100.00;101282.94;4853880;29;20657;-75
2023/01/31 09:33:43;;;;;;;0.20;0.20;;;3.80;99.90;;;3.53;100.00;101273.91;4850601;29;20396;-75
2023/01/31 09:36:15;;;;;;;0.20;0.20;;;3.70;99.90;;;3.66;100.00;101271.06;4856160;29;20611;-73
2023/01/31 09:38:42;;;;;;;0.10;0.10;;;3.70;99.90;;;3.69;100.00;101262.47;4853373;29;20240;-75
2023/01/31 09:41:20;;;;;;;0.10;0.10;;;3.80;99.90;;;3.70;100.00;101254.72;4857089;29;20765;-74
2023/01/31 09:43:57;;;;;;;0.20;0.20;;;3.90;99.90;;;3.66;100.00;101238.78;4869065;29;20296;-76
2023/01/31 09:46:31;;;;;;;0.10;0.10;;;3.80;99.90;;;3.63;100.00;101236.91;4852750;29;20244;-76
2023/01/31 09:49:01;;;;;;;0.20;0.20;;;3.80;99.90;;;3.66;100.00;101231.84;4854358;29;20300;-75
2023/01/31 09:51:28;;;;;;;0.20;0.20;;;3.80;99.90;;;3.75;100.00;101236.63;4850359;29;20260;-73
2023/01/31 09:53:56;;;;;;;0.20;0.20;;;3.80;99.90;;;3.81;100.00;101244.78;4852050;29;20239;-75
2023/01/31 09:56:50;;;;;;;0.10;0.10;;;4.10;99.90;;;3.80;100.00;101241.25;4848079;29;20237;-75
2023/01/31 09:59:30;;;;;;;0.10;0.10;;;4.00;99.90;;;3.84;100.00;101240.59;4848114;29;20334;-75
2023/01/31 10:02:49;;;;;;;0.10;0.10;;;4.00;99.90;;;3.96;100.00;101252.50;4852808;29;20236;-76
2023/01/31 10:05:50;;;;;;;0.15;0.15;;;4.00;99.90;;;4.07;100.00;101265.28;4844840;29;20225;-75
2023/01/31 10:08:46;;;;;;;0.10;0.10;;;4.10;99.90;;;4.04;100.00;101251.16;4853332;29;20312;-76
2023/01/31 10:11:47;;;;;;;0.10;0.10;;;4.20;99.90;;;4.03;100.00;101246.75;4854424;29;20240;-75
2023/01/31 10:14:30;;;;;;;0.15;0.15;;;4.20;99.90;;;4.12;100.00;101242.84;4820852;29;20754;-75
2023/01/31 10:17:22;;;;;;;0.17;0.17;;;4.20;99.90;;;4.22;100.00;101235.44;4856888;29;20236;-75
2023/01/31 10:20:20;;;;;;;0.20;0.20;;;4.30;99.90;;;4.30;100.00;101240.19;4879972;29;20244;-75
2023/01/31 10:23:37;;;;;;;0.10;0.10;;;4.40;99.90;;;4.27;100.00;101220.81;4871830;29;20288;-74
2023/01/31 10:26:27;;;;;;;0.10;0.10;;;4.40;99.90;;;4.30;100.00;101223.59;4862562;29;20256;-76
2023/01/31 10:29:14;;;;;;;0.10;0.10;;;4.40;99.90;;;4.31;100.00;101223.66;4868014;29;20260;-75
2023/01/31 10:31:58;;;;;;;0.68;0.68;;;4.40;99.90;;;4.32;99.78;101212.38;4858814;29;20388;-76
2023/01/31 10:34:33;;;;;;;0.10;0.10;;;4.50;99.90;;;4.29;99.32;101208.69;4860958;29;20237;-76
2023/01/31 10:37:15;;;;;;;0.10;0.10;;;4.50;99.90;;;4.27;98.47;101192.91;4845915;29;20236;-75
2023/01/31 10:40:13;;;;;;;0.20;0.20;;;4.40;99.90;;;4.21;98.20;101184.78;4844720;29;20233;-76
2023/01/31 10:42:45;;;;;;;0.10;0.10;;;4.30;99.90;;;4.22;98.22;101175.22;4856659;29;20229;-76
2023/01/31 10:45:16;;;;;;;0.30;0.30;;;4.30;99.90;;;4.28;97.80;101181.63;4852736;29;20236;-76
2023/01/31 10:47:50;;;;;;;0.20;0.20;;;4.40;99.90;;;4.31;97.71;101176.53;4857678;29;20232;-75
2023/01/31 10:50:42;;;;;;;0.10;0.10;;;4.40;99.90;;;4.37;97.64;101168.06;4848430;29;20229;-76
2023/01/31 10:53:32;;;;;;;0.20;0.20;;;4.40;99.90;;;4.38;96.85;101152.41;4828513;29;20735;-76
2023/01/31 10:56:34;;;;;;;0.63;0.63;;;4.50;99.90;;;4.46;96.73;101156.28;4848226;29;20241;-77